createdAt,value
2019-05-23T00:04:50.658Z,80.60
2019-05-23T00:15:32.927Z,80.77
2019-05-23T00:25:38.055Z,81.24
2019-05-23T00:35:43.318Z,81.81
2019-05-23T00:45:49.153Z,82.16
2019-05-23T00:56:00.288Z,82.38
2019-05-23T01:06:07.005Z,82.34
2019-05-23T01:16:12.369Z,82.18
2019-05-23T01:26:18.549Z,82.02
2019-05-23T01:36:24.464Z,82.11
2019-05-23T01:46:29.966Z,81.94
2019-05-23T01:56:34.963Z,81.78
2019-05-23T02:06:39.859Z,81.63
2019-05-23T02:16:46.493Z,81.51
2019-05-23T02:26:51.081Z,81.65
2019-05-23T02:36:57.229Z,81.89
2019-05-23T02:47:23.325Z,82.00
2019-05-23T02:57:29.404Z,82.43
2019-05-23T03:07:36.028Z,82.27
2019-05-23T03:17:41.375Z,82.18
2019-05-23T03:27:47.334Z,82.32
2019-05-23T03:37:53.676Z,82.51
2019-05-23T03:47:58.182Z,82.34
2019-05-23T03:58:03.150Z,82.22
2019-05-23T04:08:07.953Z,82.53
2019-05-23T04:18:12.628Z,82.44
2019-05-23T04:28:31.439Z,81.65
2019-05-23T04:38:44.909Z,81.76
2019-05-23T04:48:52.583Z,81.78
2019-05-23T04:58:59.282Z,81.67
2019-05-23T05:09:06.211Z,80.99
2019-05-23T05:19:12.438Z,80.88
2019-05-23T05:29:30.484Z,81.43
2019-05-23T05:39:40.715Z,81.14
2019-05-23T05:49:45.724Z,81.30
2019-05-23T05:59:51.041Z,81.87
2019-05-23T06:09:57.183Z,81.85
2019-05-23T06:20:03.812Z,81.83
2019-05-23T06:30:10.276Z,82.04
2019-05-23T06:40:15.208Z,81.71
2019-05-23T06:50:20.620Z,81.39
2019-05-23T07:00:26.772Z,80.55
2019-05-23T07:10:33.044Z,80.16
2019-05-23T07:20:44.497Z,79.87
2019-05-23T07:30:50.184Z,79.79
2019-05-23T07:40:55.620Z,80.06
2019-05-23T07:51:00.148Z,79.93
2019-05-23T08:01:06.606Z,79.20
2019-05-23T08:11:11.349Z,79.19
2019-05-23T08:21:16.140Z,79.41
2019-05-23T08:31:20.819Z,77.63
2019-05-23T08:41:28.516Z,77.79
2019-05-23T08:51:33.629Z,79.87
2019-05-23T09:01:38.100Z,80.24
2019-05-23T09:11:43.040Z,77.86
2019-05-23T09:21:48.430Z,75.34
2019-05-23T09:31:53.555Z,73.92
2019-05-23T09:41:59.447Z,72.48
2019-05-23T09:52:06.511Z,72.59
2019-05-23T10:02:12.020Z,72.16
2019-05-23T10:12:17.284Z,71.37
2019-05-23T10:22:22.333Z,70.16
2019-05-23T10:32:27.075Z,68.98
2019-05-23T10:42:32.579Z,68.27
2019-05-23T10:52:37.564Z,64.02
2019-05-23T11:02:43.901Z,62.53
2019-05-23T11:12:52.655Z,59.43
2019-05-23T11:22:57.982Z,57.36
2019-05-23T11:33:02.599Z,55.93
2019-05-23T11:43:07.628Z,52.74
2019-05-23T11:53:12.324Z,51.73
2019-05-23T12:03:18.273Z,50.65
2019-05-23T12:13:22.837Z,49.47
2019-05-23T12:23:28.047Z,51.22
2019-05-23T12:33:32.621Z,51.08
2019-05-23T12:43:37.767Z,51.82
2019-05-23T12:53:47.105Z,51.55
2019-05-23T13:03:52.763Z,51.96
2019-05-23T13:13:57.665Z,52.26
2019-05-23T13:24:05.015Z,52.50
2019-05-23T13:34:10.503Z,51.37
2019-05-23T13:44:32.569Z,48.22
2019-05-23T14:15:05.398Z,50.24
2019-05-23T14:25:10.028Z,50.52
2019-05-23T14:35:16.736Z,50.19
2019-05-23T14:45:38.095Z,50.02
2019-05-23T14:55:43.055Z,51.17
2019-05-23T15:05:47.508Z,51.02
2019-05-23T15:15:51.910Z,50.55
2019-05-23T15:25:59.008Z,50.31
2019-05-23T15:36:03.973Z,50.58
2019-05-23T15:46:08.904Z,50.84
2019-05-23T15:56:27.515Z,51.54
2019-05-23T16:06:31.540Z,51.78
2019-05-23T16:16:37.073Z,52.37
2019-05-23T16:26:42.376Z,53.74
2019-05-23T16:36:46.878Z,55.68
2019-05-23T16:46:51.987Z,57.22
2019-05-23T16:57:16.177Z,58.72
2019-05-23T17:07:37.462Z,59.93
2019-05-23T17:18:01.459Z,61.46
2019-05-23T17:28:04.426Z,62.94
2019-05-23T17:38:08.992Z,65.53
2019-05-23T17:48:14.017Z,65.65
2019-05-23T17:58:20.434Z,66.13
2019-05-23T18:08:27.839Z,66.71
2019-05-23T18:18:33.850Z,67.80
2019-05-23T18:28:40.499Z,68.12
2019-05-23T18:38:46.038Z,69.96
2019-05-23T18:48:52.983Z,70.33
2019-05-23T18:59:02.892Z,71.03
2019-05-23T19:09:11.880Z,71.65
2019-05-23T19:19:16.538Z,72.58
2019-05-23T19:29:23.388Z,73.53
2019-05-23T19:39:28.896Z,74.13
2019-05-23T19:49:36.536Z,74.83
2019-05-23T19:59:42.583Z,75.35
2019-05-23T20:09:49.294Z,75.84
2019-05-23T20:20:00.217Z,76.36
2019-05-23T20:30:08.565Z,76.84
2019-05-23T20:40:13.485Z,77.47
2019-05-23T20:50:18.353Z,77.78
2019-05-23T21:00:30.131Z,78.24
2019-05-23T21:10:47.272Z,78.66
2019-05-23T21:20:52.195Z,79.28
2019-05-23T21:30:58.075Z,79.47
2019-05-23T21:41:03.590Z,79.98
2019-05-23T21:51:08.277Z,80.30
2019-05-23T22:01:14.972Z,80.08
2019-05-23T22:11:20.048Z,80.13
2019-05-23T22:21:25.326Z,80.12
2019-05-23T22:31:29.925Z,80.34
2019-05-23T22:41:34.528Z,80.39
2019-05-23T22:51:39.142Z,80.40
2019-05-23T23:01:43.807Z,80.79
2019-05-23T23:11:49.688Z,81.18
2019-05-23T23:21:54.451Z,81.68
2019-05-23T23:31:58.913Z,82.13
2019-05-23T23:42:05.087Z,82.48
2019-05-23T23:52:27.348Z,83.12
